createdAt,value
2022-12-18T00:01:18.990Z,-4.76
2022-12-18T00:04:25.554Z,-4.80
2022-12-18T00:07:27.098Z,-4.85
2022-12-18T00:10:28.931Z,-4.84
2022-12-18T00:13:30.437Z,-4.98
2022-12-18T00:16:32.290Z,-5.02
2022-12-18T00:19:33.803Z,-5.03
2022-12-18T00:22:35.306Z,-5.01
2022-12-18T00:25:37.619Z,-4.98
2022-12-18T00:28:39.954Z,-5.02
2022-12-18T00:31:42.960Z,-5.00
2022-12-18T00:34:44.484Z,-5.05
2022-12-18T00:37:46.000Z,-5.21
2022-12-18T00:41:07.366Z,-5.19
2022-12-18T00:44:13.574Z,-5.15
2022-12-18T00:47:14.997Z,-5.20
2022-12-18T00:50:16.612Z,-5.21
2022-12-18T00:53:18.795Z,-5.21
2022-12-18T00:56:20.244Z,-5.17
2022-12-18T00:59:24.234Z,-5.16
2022-12-18T01:02:27.931Z,-5.15
2022-12-18T01:05:29.589Z,-5.13
2022-12-18T01:08:31.049Z,-5.16
2022-12-18T01:11:32.615Z,-5.19
2022-12-18T01:14:34.141Z,-5.25
2022-12-18T01:17:35.707Z,-5.28
2022-12-18T01:20:38.854Z,-5.23
2022-12-18T01:23:41.766Z,-5.22
2022-12-18T01:26:46.531Z,-5.26
2022-12-18T01:29:50.328Z,-5.32
2022-12-18T01:32:54.610Z,-5.34
2022-12-18T01:35:56.024Z,-5.29
2022-12-18T01:38:59.675Z,-5.31
2022-12-18T01:42:09.803Z,-5.30
2022-12-18T01:45:17.413Z,-5.28
2022-12-18T01:48:19.057Z,-5.33
2022-12-18T01:51:20.764Z,-5.38
2022-12-18T01:54:22.328Z,-5.46
2022-12-18T01:57:25.824Z,-5.47
2022-12-18T02:00:28.486Z,-5.47
2022-12-18T02:03:29.979Z,-5.51
2022-12-18T02:06:40.709Z,-5.51
2022-12-18T02:10:03.213Z,-5.49
2022-12-18T02:13:15.674Z,-5.60
2022-12-18T02:16:44.773Z,-5.58
2022-12-18T02:20:03.651Z,-5.60
2022-12-18T02:23:23.950Z,-5.58
2022-12-18T02:26:36.210Z,-5.51
2022-12-18T02:29:43.283Z,-5.52
2022-12-18T02:32:50.398Z,-5.52
2022-12-18T02:35:54.316Z,-5.63
2022-12-18T02:38:59.130Z,-5.59
2022-12-18T02:42:01.958Z,-5.59
2022-12-18T02:45:04.310Z,-5.60
2022-12-18T02:48:08.847Z,-5.62
2022-12-18T02:51:30.708Z,-5.65
2022-12-18T02:54:47.344Z,-5.74
2022-12-18T02:57:59.146Z,-5.91
2022-12-18T03:01:20.470Z,-6.00
2022-12-18T03:04:31.535Z,-5.99
2022-12-18T03:07:43.042Z,-6.00
2022-12-18T03:11:00.407Z,-5.99
2022-12-18T03:14:06.299Z,-5.93
2022-12-18T03:17:16.526Z,-5.92
2022-12-18T03:20:22.657Z,-5.99
2022-12-18T03:23:28.995Z,-6.00
2022-12-18T03:26:31.117Z,-5.97
2022-12-18T03:29:50.887Z,-6.05
2022-12-18T03:33:08.253Z,-6.11
2022-12-18T03:36:10.870Z,-6.11
2022-12-18T03:39:13.648Z,-6.13
2022-12-18T03:42:52.372Z,-6.23
2022-12-18T03:46:07.096Z,-6.21
2022-12-18T03:49:34.061Z,-6.23
2022-12-18T03:52:53.148Z,-6.28
2022-12-18T03:55:56.717Z,-6.32
2022-12-18T03:59:05.189Z,-6.38
2022-12-18T04:02:09.276Z,-6.44
2022-12-18T04:05:12.993Z,-6.51
2022-12-18T04:08:17.158Z,-6.58
2022-12-18T04:11:26.596Z,-6.68
2022-12-18T04:14:28.934Z,-6.76
2022-12-18T04:17:31.925Z,-6.86
2022-12-18T04:20:33.597Z,-6.88
2022-12-18T04:23:35.143Z,-6.90
2022-12-18T04:26:37.378Z,-6.96
2022-12-18T04:29:47.306Z,-7.06
2022-12-18T04:32:52.334Z,-7.07
2022-12-18T04:35:55.061Z,-7.22
2022-12-18T04:38:56.679Z,-7.37
2022-12-18T04:41:58.627Z,-7.44
2022-12-18T04:45:03.630Z,-7.51
2022-12-18T04:48:05.303Z,-7.57
2022-12-18T04:51:07.128Z,-7.63
2022-12-18T04:54:08.642Z,-7.75
2022-12-18T04:57:10.171Z,-7.87
2022-12-18T05:00:12.546Z,-7.92
2022-12-18T05:03:32.708Z,-8.05
2022-12-18T05:06:34.204Z,-8.25
2022-12-18T05:09:35.729Z,-8.36
2022-12-18T05:12:37.202Z,-8.48
2022-12-18T05:15:38.696Z,-8.58
2022-12-18T05:18:40.331Z,-8.55
2022-12-18T05:21:41.756Z,-8.52
2022-12-18T05:24:43.262Z,-8.53
2022-12-18T05:27:45.214Z,-8.52
2022-12-18T05:30:51.793Z,-8.53
2022-12-18T05:33:53.309Z,-8.58
2022-12-18T05:36:54.871Z,-8.54
2022-12-18T05:39:56.369Z,-8.56
2022-12-18T05:42:57.819Z,-8.49
2022-12-18T05:46:04.567Z,-8.50
2022-12-18T05:49:05.992Z,-8.55
2022-12-18T05:52:07.543Z,-8.53
2022-12-18T05:55:09.174Z,-8.53
2022-12-18T05:58:12.736Z,-8.52
2022-12-18T06:01:18.131Z,-8.60
2022-12-18T06:04:19.673Z,-8.73
2022-12-18T06:07:21.123Z,-8.81
2022-12-18T06:10:22.562Z,-8.76
2022-12-18T06:13:24.094Z,-8.82
2022-12-18T06:16:26.069Z,-8.84
2022-12-18T06:19:27.558Z,-8.77
2022-12-18T06:22:29.014Z,-8.79
2022-12-18T06:25:30.489Z,-8.79
2022-12-18T06:28:32.130Z,-8.75
2022-12-18T06:31:33.723Z,-8.76
2022-12-18T06:34:37.623Z,-8.77
2022-12-18T06:37:39.061Z,-8.80
2022-12-18T06:40:40.551Z,-8.87
2022-12-18T06:43:42.957Z,-8.87
2022-12-18T06:46:44.607Z,-8.88
2022-12-18T06:49:46.202Z,-8.92
2022-12-18T06:52:47.679Z,-8.83
2022-12-18T06:55:49.532Z,-8.93
2022-12-18T06:58:51.052Z,-8.97
2022-12-18T07:01:52.664Z,-8.87
2022-12-18T07:04:54.226Z,-8.77
2022-12-18T07:07:55.838Z,-8.97
2022-12-18T07:10:57.752Z,-8.98
2022-12-18T07:13:59.194Z,-9.05
2022-12-18T07:17:00.775Z,-9.07
2022-12-18T07:20:02.374Z,-9.06
2022-12-18T07:23:05.264Z,-9.05
2022-12-18T07:26:10.082Z,-9.11
2022-12-18T07:29:11.587Z,-9.01
2022-12-18T07:32:13.093Z,-8.90
2022-12-18T07:35:17.494Z,-8.76
2022-12-18T07:38:22.583Z,-8.63
2022-12-18T07:41:24.079Z,-8.66
2022-12-18T07:44:25.599Z,-8.63
2022-12-18T07:47:27.194Z,-8.53
2022-12-18T07:50:29.566Z,-8.47
2022-12-18T07:53:31.453Z,-8.48
2022-12-18T07:56:34.103Z,-8.48
2022-12-18T07:59:36.006Z,-8.35
2022-12-18T08:02:37.605Z,-8.30
2022-12-18T08:05:39.102Z,-8.11
2022-12-18T08:08:40.542Z,-7.93
2022-12-18T08:11:42.012Z,-7.90
2022-12-18T08:14:43.602Z,-7.83
2022-12-18T08:17:45.166Z,-7.74
2022-12-18T08:20:46.624Z,-7.63
2022-12-18T08:23:48.731Z,-7.62
2022-12-18T08:27:00.998Z,-7.61
2022-12-18T08:30:12.641Z,-7.57
2022-12-18T08:33:14.114Z,-7.51
2022-12-18T08:36:15.584Z,-7.50
2022-12-18T08:39:17.124Z,-7.48
2022-12-18T08:42:18.628Z,-7.39
2022-12-18T08:45:20.132Z,-7.31
2022-12-18T08:48:22.390Z,-7.26
2022-12-18T08:51:24.102Z,-7.16
2022-12-18T08:54:26.824Z,-7.06
2022-12-18T08:57:28.249Z,-7.00
2022-12-18T09:00:29.779Z,-6.90
2022-12-18T09:03:34.397Z,-6.81
2022-12-18T09:06:36.192Z,-6.76
2022-12-18T09:09:38.651Z,-6.71
2022-12-18T09:12:40.102Z,-6.67
2022-12-18T09:15:51.131Z,-6.64
2022-12-18T09:18:52.632Z,-6.54
2022-12-18T09:21:54.064Z,-6.51
2022-12-18T09:24:55.540Z,-6.48
2022-12-18T09:27:57.014Z,-6.43
2022-12-18T09:30:58.515Z,-6.34
2022-12-18T09:34:00.087Z,-6.26
2022-12-18T09:37:01.589Z,-6.18
2022-12-18T09:40:03.446Z,-6.09
2022-12-18T09:43:08.432Z,-6.03
2022-12-18T09:46:18.700Z,-5.97
2022-12-18T09:49:26.098Z,-5.95
2022-12-18T09:52:42.688Z,-5.94
2022-12-18T09:55:48.636Z,-5.83
2022-12-18T09:59:02.993Z,-5.81
2022-12-18T10:02:24.761Z,-5.67
2022-12-18T10:05:48.315Z,-5.64
2022-12-18T10:09:08.461Z,-5.62
2022-12-18T10:12:28.412Z,-5.50
2022-12-18T10:15:41.747Z,-5.48
2022-12-18T10:19:20.932Z,-5.39
2022-12-18T10:22:27.198Z,-5.31
2022-12-18T10:25:45.796Z,-5.23
2022-12-18T10:28:47.677Z,-5.19
2022-12-18T10:31:49.162Z,-5.13
2022-12-18T10:34:59.828Z,-5.09
2022-12-18T10:38:17.215Z,-5.05
2022-12-18T10:41:18.616Z,-4.98
2022-12-18T10:44:24.415Z,-4.87
2022-12-18T10:47:29.135Z,-4.76
2022-12-18T10:51:09.174Z,-4.74
2022-12-18T10:54:04.259Z,-4.68
2022-12-18T10:57:29.663Z,-4.56
2022-12-18T11:00:31.679Z,-4.49
2022-12-18T11:03:38.263Z,-4.41
2022-12-18T11:06:53.703Z,-4.32
2022-12-18T11:10:03.383Z,-4.36
2022-12-18T11:13:17.615Z,-4.26
2022-12-18T11:16:22.363Z,-4.13
2022-12-18T11:19:41.735Z,-4.10
2022-12-18T11:22:43.674Z,-4.09
2022-12-18T11:25:56.900Z,-4.15
2022-12-18T11:29:17.187Z,-4.08
2022-12-18T11:32:32.373Z,-3.99
2022-12-18T11:35:53.753Z,-4.07
2022-12-18T11:38:58.294Z,-3.99
2022-12-18T11:42:13.247Z,-3.90
2022-12-18T11:45:15.466Z,-3.84
2022-12-18T11:48:28.433Z,-3.89
2022-12-18T11:51:39.084Z,-3.81
2022-12-18T11:54:40.565Z,-3.81
2022-12-18T11:57:50.376Z,-3.78
2022-12-18T12:01:19.242Z,-3.62
2022-12-18T12:04:44.176Z,-3.57
2022-12-18T12:07:53.545Z,-3.50
2022-12-18T12:11:24.009Z,-3.46
2022-12-18T12:14:48.566Z,-3.43
2022-12-18T12:18:23.839Z,-3.28
2022-12-18T12:21:28.204Z,-3.35
2022-12-18T12:25:00.651Z,-3.30
2022-12-18T12:28:36.741Z,-3.30
2022-12-18T12:32:19.851Z,-3.24
2022-12-18T12:35:52.857Z,-3.21
2022-12-18T12:39:01.997Z,-3.17
2022-12-18T12:42:16.298Z,-3.21
2022-12-18T12:45:25.072Z,-3.20
2022-12-18T12:48:43.783Z,-3.17
2022-12-18T12:51:56.714Z,-3.22
2022-12-18T12:55:10.257Z,-3.20
2022-12-18T12:58:24.086Z,-3.15
2022-12-18T13:01:42.432Z,-3.22
2022-12-18T13:04:57.243Z,-3.24
2022-12-18T13:08:07.028Z,-3.20
2022-12-18T13:11:45.411Z,-3.18
2022-12-18T13:14:50.093Z,-3.19
2022-12-18T13:18:10.620Z,-3.20
2022-12-18T13:21:25.287Z,-3.19
2022-12-18T13:24:31.518Z,-2.97
2022-12-18T13:27:45.164Z,-3.02
2022-12-18T13:30:55.067Z,-3.14
2022-12-18T13:34:27.828Z,-3.14
2022-12-18T13:37:33.487Z,-3.14
2022-12-18T13:40:41.007Z,-3.20
2022-12-18T13:43:46.009Z,-3.15
2022-12-18T13:46:50.602Z,-3.13
2022-12-18T13:49:53.450Z,-3.11
2022-12-18T13:52:55.097Z,-3.09
2022-12-18T13:55:57.110Z,-3.08
2022-12-18T13:59:13.303Z,-3.04
2022-12-18T14:02:21.572Z,-3.04
2022-12-18T14:05:28.191Z,-3.07
2022-12-18T14:08:41.967Z,-3.02
2022-12-18T14:11:48.874Z,-3.00
2022-12-18T14:14:53.148Z,-2.98
2022-12-18T14:18:00.373Z,-2.97
2022-12-18T14:21:04.019Z,-2.98
2022-12-18T14:24:05.664Z,-2.95
2022-12-18T14:27:25.471Z,-2.98
2022-12-18T14:30:33.706Z,-2.96
2022-12-18T14:33:39.333Z,-2.97
2022-12-18T14:36:41.066Z,-2.97
2022-12-18T14:40:02.201Z,-2.99
2022-12-18T14:43:06.035Z,-2.94
2022-12-18T14:46:29.969Z,-2.94
2022-12-18T14:49:34.621Z,-2.94
2022-12-18T14:52:36.176Z,-2.95
2022-12-18T14:55:37.718Z,-2.92
2022-12-18T14:58:39.205Z,-2.87
2022-12-18T15:01:48.485Z,-2.91
2022-12-18T15:05:17.695Z,-2.87
2022-12-18T15:08:32.417Z,-2.88
2022-12-18T15:11:58.774Z,-2.85
2022-12-18T15:15:00.315Z,-2.86
2022-12-18T15:18:11.313Z,-2.87
2022-12-18T15:21:19.526Z,-2.87
2022-12-18T15:24:30.551Z,-2.90
2022-12-18T15:27:37.155Z,-2.88
2022-12-18T15:30:38.639Z,-2.88
2022-12-18T15:34:02.596Z,-2.85
2022-12-18T15:37:04.071Z,-2.86
2022-12-18T15:40:06.289Z,-2.87
2022-12-18T15:43:10.025Z,-2.86
2022-12-18T15:46:16.906Z,-2.85
2022-12-18T15:49:18.420Z,-2.81
2022-12-18T15:52:19.895Z,-2.84
2022-12-18T15:55:23.746Z,-2.79
2022-12-18T15:58:25.152Z,-2.80
2022-12-18T16:01:29.291Z,-2.81
2022-12-18T16:04:30.818Z,-2.78
2022-12-18T16:07:32.345Z,-2.79
2022-12-18T16:10:33.814Z,-2.72
2022-12-18T16:13:35.417Z,-2.71
2022-12-18T16:16:37.002Z,-2.69
2022-12-18T16:19:38.478Z,-2.65
2022-12-18T16:22:39.894Z,-2.66
2022-12-18T16:25:41.823Z,-2.65
2022-12-18T16:28:48.254Z,-2.63
2022-12-18T16:31:50.012Z,-2.63
2022-12-18T16:34:51.982Z,-2.62
2022-12-18T16:37:53.533Z,-2.63
2022-12-18T16:40:55.050Z,-2.60
2022-12-18T16:43:56.497Z,-2.57
2022-12-18T16:46:57.935Z,-2.58
2022-12-18T16:49:59.546Z,-2.58
2022-12-18T16:53:01.031Z,-2.56
2022-12-18T16:56:02.524Z,-2.51
2022-12-18T16:59:04.084Z,-2.52
2022-12-18T17:02:06.653Z,-2.51
2022-12-18T17:05:09.594Z,-2.49
2022-12-18T17:08:13.409Z,-2.44
2022-12-18T17:11:15.288Z,-2.42
2022-12-18T17:14:19.780Z,-2.41
2022-12-18T17:17:23.022Z,-2.39
2022-12-18T17:20:24.726Z,-2.41
2022-12-18T17:23:28.431Z,-2.31
2022-12-18T17:26:30.463Z,-2.30
2022-12-18T17:29:31.972Z,-2.33
2022-12-18T17:32:33.409Z,-2.29
2022-12-18T17:35:34.838Z,-2.28
2022-12-18T17:38:37.034Z,-2.22
2022-12-18T17:41:38.491Z,-2.14
2022-12-18T17:44:39.963Z,-2.17
2022-12-18T17:47:41.407Z,-2.12
2022-12-18T17:50:42.849Z,-2.11
2022-12-18T17:53:44.953Z,-2.11
2022-12-18T17:56:46.524Z,-2.06
2022-12-18T17:59:48.035Z,-2.08
2022-12-18T18:02:49.654Z,-2.03
2022-12-18T18:05:58.874Z,-1.99
2022-12-18T18:09:00.426Z,-2.01
2022-12-18T18:12:01.862Z,-1.96
2022-12-18T18:15:03.709Z,-1.96
2022-12-18T18:18:05.409Z,-1.93
2022-12-18T18:21:08.062Z,-1.91
2022-12-18T18:24:11.893Z,-1.87
2022-12-18T18:27:13.364Z,-1.87
2022-12-18T18:30:14.895Z,-1.86
2022-12-18T18:33:16.395Z,-1.82
2022-12-18T18:36:17.935Z,-1.82
2022-12-18T18:39:19.983Z,-1.79
2022-12-18T18:42:21.437Z,-1.78
2022-12-18T18:45:22.874Z,-1.73
2022-12-18T18:48:25.298Z,-1.66
2022-12-18T18:51:34.878Z,-1.66
2022-12-18T18:54:36.784Z,-1.65
2022-12-18T18:57:38.246Z,-1.62
2022-12-18T19:00:39.843Z,-1.63
2022-12-18T19:03:43.011Z,-1.61
2022-12-18T19:06:44.823Z,-1.61
2022-12-18T19:09:47.277Z,-1.55
2022-12-18T19:12:48.708Z,-1.52
2022-12-18T19:15:55.846Z,-1.53
2022-12-18T19:19:01.740Z,-1.50
2022-12-18T19:22:04.887Z,-1.52
2022-12-18T19:25:07.359Z,-1.48
2022-12-18T19:28:21.262Z,-1.50
2022-12-18T19:31:26.322Z,-1.47
2022-12-18T19:34:31.994Z,-1.46
2022-12-18T19:37:35.287Z,-1.43
2022-12-18T19:40:40.841Z,-1.45
2022-12-18T19:43:42.641Z,-1.45
2022-12-18T19:46:45.011Z,-1.45
2022-12-18T19:49:46.857Z,-1.43
2022-12-18T19:52:48.329Z,-1.44
2022-12-18T19:55:49.866Z,-1.42
2022-12-18T19:58:52.444Z,-1.39
2022-12-18T20:01:54.452Z,-1.39
2022-12-18T20:04:56.387Z,-1.39
2022-12-18T20:07:57.945Z,-1.39
2022-12-18T20:10:59.435Z,-1.40
2022-12-18T20:14:01.080Z,-1.40
2022-12-18T20:17:02.563Z,-1.39
2022-12-18T20:20:04.880Z,-1.37
2022-12-18T20:23:06.304Z,-1.37
2022-12-18T20:26:07.806Z,-1.34
2022-12-18T20:29:10.233Z,-1.34
2022-12-18T20:32:11.787Z,-1.37
2022-12-18T20:35:13.358Z,-1.36
2022-12-18T20:38:15.770Z,-1.35
2022-12-18T20:41:20.546Z,-1.36
2022-12-18T20:44:24.041Z,-1.35
2022-12-18T20:47:26.392Z,-1.34
2022-12-18T20:50:28.255Z,-1.36
2022-12-18T20:53:29.981Z,-1.32
2022-12-18T20:56:31.549Z,-1.30
2022-12-18T20:59:33.064Z,-1.32
2022-12-18T21:02:34.764Z,-1.30
2022-12-18T21:05:36.361Z,-1.31
2022-12-18T21:08:39.263Z,-1.28
2022-12-18T21:11:59.325Z,-1.29
2022-12-18T21:15:01.586Z,-1.30
2022-12-18T21:18:03.125Z,-1.26
2022-12-18T21:21:04.729Z,-1.25
2022-12-18T21:24:18.138Z,-1.27
2022-12-18T21:27:23.287Z,-1.26
2022-12-18T21:30:24.750Z,-1.30
2022-12-18T21:33:26.183Z,-1.26
2022-12-18T21:36:27.799Z,-1.25
2022-12-18T21:39:30.271Z,-1.24
2022-12-18T21:42:31.824Z,-1.21
2022-12-18T21:45:33.539Z,-1.22
2022-12-18T21:48:34.967Z,-1.18
2022-12-18T21:51:41.330Z,-1.17
2022-12-18T21:54:42.804Z,-1.16
2022-12-18T21:57:44.259Z,-1.17
2022-12-18T22:00:48.665Z,-1.17
2022-12-18T22:03:50.366Z,-1.17
2022-12-18T22:06:51.895Z,-1.16
2022-12-18T22:09:53.338Z,-1.14
2022-12-18T22:12:55.064Z,-1.15
2022-12-18T22:15:56.670Z,-1.10
2022-12-18T22:18:58.186Z,-1.09
2022-12-18T22:21:59.771Z,-1.09
2022-12-18T22:25:01.202Z,-1.03
2022-12-18T22:28:02.707Z,-1.04
2022-12-18T22:31:04.273Z,-1.02
2022-12-18T22:34:07.018Z,-1.02
2022-12-18T22:37:11.294Z,-1.00
2022-12-18T22:40:23.709Z,-0.94
2022-12-18T22:43:26.114Z,-0.94
2022-12-18T22:46:30.956Z,-0.93
2022-12-18T22:49:36.122Z,-0.94
2022-12-18T22:52:37.642Z,-0.90
2022-12-18T22:55:39.109Z,-0.88
2022-12-18T22:58:40.584Z,-0.87
2022-12-18T23:01:42.266Z,-0.94
2022-12-18T23:04:45.167Z,-0.88
2022-12-18T23:07:46.692Z,-0.89
2022-12-18T23:10:52.633Z,-0.88
2022-12-18T23:13:54.192Z,-0.89
2022-12-18T23:16:59.023Z,-0.86
2022-12-18T23:20:00.439Z,-0.84
2022-12-18T23:23:01.869Z,-0.83
2022-12-18T23:26:08.756Z,-0.80
2022-12-18T23:29:10.207Z,-0.77
2022-12-18T23:32:11.661Z,-0.80
2022-12-18T23:35:15.899Z,-0.73
2022-12-18T23:38:17.552Z,-0.69
2022-12-18T23:41:20.829Z,-0.70
2022-12-18T23:44:22.276Z,-0.66
2022-12-18T23:47:23.871Z,-0.61
2022-12-18T23:50:28.760Z,-0.59
2022-12-18T23:53:31.558Z,-0.56
2022-12-18T23:56:33.027Z,-0.51
2022-12-18T23:59:34.459Z,-0.45
